sensor_id;sensor_type;location;lat;lon;timestamp;P1;durP1;ratioP1;P2;durP2;ratioP2
63874;SDS011;51595;24.180;-110.296;2022-10-31T00:00:46;6.95;;;1.60;;
63874;SDS011;51595;24.180;-110.296;2022-10-31T00:03:13;8.20;;;1.90;;
63874;SDS011;51595;24.180;-110.296;2022-10-31T00:05:40;7.75;;;1.30;;
63874;SDS011;51595;24.180;-110.296;2022-10-31T00:08:08;6.32;;;1.60;;
63874;SDS011;51595;24.180;-110.296;2022-10-31T00:10:37;9.73;;;2.47;;
63874;SDS011;51595;24.180;-110.296;2022-10-31T00:13:07;10.82;;;1.80;;
63874;SDS011;51595;24.180;-110.296;2022-10-31T00:15:35;6.72;;;1.73;;
63874;SDS011;51595;24.180;-110.296;2022-10-31T00:18:02;8.23;;;1.70;;
63874;SDS011;51595;24.180;-110.296;2022-10-31T00:20:29;4.72;;;1.40;;
63874;SDS011;51595;24.180;-110.296;2022-10-31T00:22:59;10.57;;;2.00;;
63874;SDS011;51595;24.180;-110.296;2022-10-31T00:25:26;9.15;;;1.75;;
63874;SDS011;51595;24.180;-110.296;2022-10-31T00:27:54;10.77;;;1.92;;
63874;SDS011;51595;24.180;-110.296;2022-10-31T00:30:20;7.97;;;1.73;;
63874;SDS011;51595;24.180;-110.296;2022-10-31T00:32:47;6.70;;;1.63;;
63874;SDS011;51595;24.180;-110.296;2022-10-31T00:35:14;7.07;;;1.30;;
63874;SDS011;51595;24.180;-110.296;2022-10-31T00:37:41;8.38;;;1.30;;
63874;SDS011;51595;24.180;-110.296;2022-10-31T00:40:08;7.35;;;1.52;;
63874;SDS011;51595;24.180;-110.296;2022-10-31T00:42:35;14.18;;;1.90;;
63874;SDS011;51595;24.180;-110.296;2022-10-31T00:45:01;12.60;;;1.70;;
63874;SDS011;51595;24.180;-110.296;2022-10-31T00:47:28;8.30;;;1.77;;
63874;SDS011;51595;24.180;-110.296;2022-10-31T00:49:54;11.23;;;1.95;;
63874;SDS011;51595;24.180;-110.296;2022-10-31T00:52:21;13.80;;;1.90;;
63874;SDS011;51595;24.180;-110.296;2022-10-31T00:54:47;9.00;;;1.67;;
63874;SDS011;51595;24.180;-110.296;2022-10-31T00:57:14;5.97;;;1.48;;
63874;SDS011;51595;24.180;-110.296;2022-10-31T00:59:40;4.97;;;1.40;;
63874;SDS011;51595;24.180;-110.296;2022-10-31T01:02:06;8.40;;;2.05;;
63874;SDS011;51595;24.180;-110.296;2022-10-31T01:04:33;10.05;;;1.70;;
63874;SDS011;51595;24.180;-110.296;2022-10-31T01:06:59;13.90;;;1.60;;
63874;SDS011;51595;24.180;-110.296;2022-10-31T01:09:26;7.05;;;1.38;;
63874;SDS011;51595;24.180;-110.296;2022-10-31T01:11:52;10.38;;;2.03;;
63874;SDS011;51595;24.180;-110.296;2022-10-31T01:14:18;5.55;;;1.30;;
63874;SDS011;51595;24.180;-110.296;2022-10-31T01:16:45;13.15;;;1.80;;
63874;SDS011;51595;24.180;-110.296;2022-10-31T01:19:11;15.50;;;1.70;;
63874;SDS011;51595;24.180;-110.296;2022-10-31T01:21:38;9.73;;;1.80;;
63874;SDS011;51595;24.180;-110.296;2022-10-31T01:24:04;8.25;;;1.80;;
63874;SDS011;51595;24.180;-110.296;2022-10-31T01:26:34;8.18;;;1.70;;
63874;SDS011;51595;24.180;-110.296;2022-10-31T01:29:03;8.18;;;1.50;;
63874;SDS011;51595;24.180;-110.296;2022-10-31T01:31:32;12.95;;;2.38;;
63874;SDS011;51595;24.180;-110.296;2022-10-31T01:34:01;11.55;;;1.77;;
63874;SDS011;51595;24.180;-110.296;2022-10-31T01:36:29;7.10;;;1.83;;
63874;SDS011;51595;24.180;-110.296;2022-10-31T01:38:58;10.52;;;1.88;;
63874;SDS011;51595;24.180;-110.296;2022-10-31T01:41:27;6.28;;;1.58;;
63874;SDS011;51595;24.180;-110.296;2022-10-31T01:44:03;9.68;;;1.83;;
63874;SDS011;51595;24.180;-110.296;2022-10-31T01:47:01;12.88;;;1.77;;
63874;SDS011;51595;24.180;-110.296;2022-10-31T01:55:03;10.02;;;1.75;;
63874;SDS011;51595;24.180;-110.296;2022-10-31T01:57:33;9.00;;;1.67;;
63874;SDS011;51595;24.180;-110.296;2022-10-31T02:00:03;6.80;;;2.08;;
63874;SDS011;51595;24.180;-110.296;2022-10-31T02:02:32;6.03;;;1.38;;
63874;SDS011;51595;24.180;-110.296;2022-10-31T02:05:00;19.88;;;2.33;;
63874;SDS011;51595;24.180;-110.296;2022-10-31T02:07:32;11.80;;;2.30;;
63874;SDS011;51595;24.180;-110.296;2022-10-31T02:10:07;15.05;;;2.95;;
63874;SDS011;51595;24.180;-110.296;2022-10-31T02:12:33;12.70;;;2.65;;
63874;SDS011;51595;24.180;-110.296;2022-10-31T02:15:04;17.58;;;3.13;;
63874;SDS011;51595;24.180;-110.296;2022-10-31T02:17:31;19.88;;;2.75;;
63874;SDS011;51595;24.180;-110.296;2022-10-31T02:20:15;16.55;;;2.47;;
63874;SDS011;51595;24.180;-110.296;2022-10-31T02:28:41;21.85;;;2.92;;
63874;SDS011;51595;24.180;-110.296;2022-10-31T02:31:22;14.55;;;2.58;;
63874;SDS011;51595;24.180;-110.296;2022-10-31T02:34:10;21.92;;;2.72;;
63874;SDS011;51595;24.180;-110.296;2022-10-31T02:42:03;13.82;;;2.85;;
63874;SDS011;51595;24.180;-110.296;2022-10-31T02:47:46;11.07;;;3.10;;
63874;SDS011;51595;24.180;-110.296;2022-10-31T02:50:18;20.08;;;3.17;;
63874;SDS011;51595;24.180;-110.296;2022-10-31T02:52:49;19.73;;;3.95;;
63874;SDS011;51595;24.180;-110.296;2022-10-31T02:58:02;15.90;;;3.55;;
63874;SDS011;51595;24.180;-110.296;2022-10-31T03:01:22;23.23;;;3.20;;
63874;SDS011;51595;24.180;-110.296;2022-10-31T03:03:48;15.25;;;3.42;;
63874;SDS011;51595;24.180;-110.296;2022-10-31T03:07:03;13.43;;;2.63;;
63874;SDS011;51595;24.180;-110.296;2022-10-31T03:12:50;19.88;;;3.78;;
63874;SDS011;51595;24.180;-110.296;2022-10-31T03:15:31;24.73;;;3.55;;
63874;SDS011;51595;24.180;-110.296;2022-10-31T03:18:43;23.65;;;3.67;;
63874;SDS011;51595;24.180;-110.296;2022-10-31T03:21:00;15.05;;;2.92;;
63874;SDS011;51595;24.180;-110.296;2022-10-31T03:23:32;19.98;;;3.75;;
63874;SDS011;51595;24.180;-110.296;2022-10-31T03:26:01;14.40;;;3.17;;
63874;SDS011;51595;24.180;-110.296;2022-10-31T03:28:35;18.73;;;3.88;;
63874;SDS011;51595;24.180;-110.296;2022-10-31T03:31:09;14.45;;;3.45;;
63874;SDS011;51595;24.180;-110.296;2022-10-31T03:33:37;17.38;;;3.85;;
63874;SDS011;51595;24.180;-110.296;2022-10-31T03:36:06;19.00;;;3.65;;
63874;SDS011;51595;24.180;-110.296;2022-10-31T03:38:34;21.08;;;3.42;;
63874;SDS011;51595;24.180;-110.296;2022-10-31T03:41:03;17.42;;;4.07;;
63874;SDS011;51595;24.180;-110.296;2022-10-31T03:43:36;26.33;;;4.72;;
63874;SDS011;51595;24.180;-110.296;2022-10-31T03:46:08;24.67;;;4.00;;
63874;SDS011;51595;24.180;-110.296;2022-10-31T03:48:35;20.80;;;3.45;;
63874;SDS011;51595;24.180;-110.296;2022-10-31T03:51:13;21.42;;;3.80;;
63874;SDS011;51595;24.180;-110.296;2022-10-31T03:56:24;22.38;;;4.78;;
63874;SDS011;51595;24.180;-110.296;2022-10-31T04:01:26;18.63;;;3.67;;
63874;SDS011;51595;24.180;-110.296;2022-10-31T04:03:57;32.63;;;4.68;;
63874;SDS011;51595;24.180;-110.296;2022-10-31T04:06:24;25.98;;;4.57;;
63874;SDS011;51595;24.180;-110.296;2022-10-31T04:08:52;20.08;;;3.30;;
63874;SDS011;51595;24.180;-110.296;2022-10-31T04:11:23;19.40;;;3.95;;
63874;SDS011;51595;24.180;-110.296;2022-10-31T04:13:55;21.45;;;3.97;;
63874;SDS011;51595;24.180;-110.296;2022-10-31T04:16:22;21.92;;;3.63;;
63874;SDS011;51595;24.180;-110.296;2022-10-31T04:18:50;22.23;;;3.95;;
63874;SDS011;51595;24.180;-110.296;2022-10-31T04:21:16;21.45;;;4.20;;
63874;SDS011;51595;24.180;-110.296;2022-10-31T04:23:43;19.92;;;4.57;;
63874;SDS011;51595;24.180;-110.296;2022-10-31T04:26:13;23.52;;;4.13;;
63874;SDS011;51595;24.180;-110.296;2022-10-31T04:28:39;24.35;;;4.53;;
63874;SDS011;51595;24.180;-110.296;2022-10-31T04:31:06;19.63;;;4.57;;
63874;SDS011;51595;24.180;-110.296;2022-10-31T04:33:34;26.85;;;4.28;;
63874;SDS011;51595;24.180;-110.296;2022-10-31T04:36:00;23.73;;;4.53;;
63874;SDS011;51595;24.180;-110.296;2022-10-31T04:38:28;22.05;;;4.53;;
63874;SDS011;51595;24.180;-110.296;2022-10-31T04:40:54;31.88;;;4.88;;
63874;SDS011;51595;24.180;-110.296;2022-10-31T04:43:21;19.50;;;4.22;;
63874;SDS011;51595;24.180;-110.296;2022-10-31T04:45:48;25.52;;;3.97;;
63874;SDS011;51595;24.180;-110.296;2022-10-31T04:48:14;24.23;;;4.35;;
63874;SDS011;51595;24.180;-110.296;2022-10-31T04:50:41;18.25;;;3.92;;
63874;SDS011;51595;24.180;-110.296;2022-10-31T04:53:08;26.77;;;5.15;;
63874;SDS011;51595;24.180;-110.296;2022-10-31T04:55:37;23.17;;;4.05;;
63874;SDS011;51595;24.180;-110.296;2022-10-31T04:58:03;25.45;;;3.88;;
63874;SDS011;51595;24.180;-110.296;2022-10-31T05:00:30;25.35;;;3.83;;
63874;SDS011;51595;24.180;-110.296;2022-10-31T05:02:57;31.13;;;4.78;;
63874;SDS011;51595;24.180;-110.296;2022-10-31T05:05:25;23.73;;;4.05;;
63874;SDS011;51595;24.180;-110.296;2022-10-31T05:07:54;20.77;;;4.20;;
63874;SDS011;51595;24.180;-110.296;2022-10-31T05:10:22;17.17;;;4.43;;
63874;SDS011;51595;24.180;-110.296;2022-10-31T05:12:54;27.20;;;4.88;;
63874;SDS011;51595;24.180;-110.296;2022-10-31T05:15:26;24.95;;;4.40;;
63874;SDS011;51595;24.180;-110.296;2022-10-31T05:17:53;18.88;;;3.20;;
63874;SDS011;51595;24.180;-110.296;2022-10-31T05:20:22;27.85;;;4.40;;
63874;SDS011;51595;24.180;-110.296;2022-10-31T05:22:52;22.70;;;3.88;;
63874;SDS011;51595;24.180;-110.296;2022-10-31T05:25:20;26.80;;;4.43;;
63874;SDS011;51595;24.180;-110.296;2022-10-31T05:27:48;31.58;;;5.05;;
63874;SDS011;51595;24.180;-110.296;2022-10-31T05:30:18;15.40;;;3.85;;
63874;SDS011;51595;24.180;-110.296;2022-10-31T05:32:47;23.42;;;4.45;;
63874;SDS011;51595;24.180;-110.296;2022-10-31T05:35:16;26.02;;;4.75;;
63874;SDS011;51595;24.180;-110.296;2022-10-31T05:37:47;22.75;;;3.80;;
63874;SDS011;51595;24.180;-110.296;2022-10-31T05:40:14;21.13;;;3.97;;
63874;SDS011;51595;24.180;-110.296;2022-10-31T05:42:42;25.50;;;5.10;;
63874;SDS011;51595;24.180;-110.296;2022-10-31T05:45:16;26.05;;;4.82;;
63874;SDS011;51595;24.180;-110.296;2022-10-31T05:47:49;23.00;;;5.03;;
63874;SDS011;51595;24.180;-110.296;2022-10-31T05:50:17;26.25;;;3.72;;
63874;SDS011;51595;24.180;-110.296;2022-10-31T05:52:44;19.00;;;3.78;;
63874;SDS011;51595;24.180;-110.296;2022-10-31T05:55:10;23.58;;;4.07;;
63874;SDS011;51595;24.180;-110.296;2022-10-31T05:57:37;25.17;;;4.45;;
63874;SDS011;51595;24.180;-110.296;2022-10-31T06:00:04;25.40;;;4.22;;
63874;SDS011;51595;24.180;-110.296;2022-10-31T06:02:31;22.65;;;4.38;;
63874;SDS011;51595;24.180;-110.296;2022-10-31T06:05:00;27.33;;;4.22;;
63874;SDS011;51595;24.180;-110.296;2022-10-31T06:07:26;24.35;;;5.15;;
63874;SDS011;51595;24.180;-110.296;2022-10-31T06:09:57;23.15;;;4.18;;
63874;SDS011;51595;24.180;-110.296;2022-10-31T06:12:23;20.13;;;3.83;;
63874;SDS011;51595;24.180;-110.296;2022-10-31T06:14:50;22.05;;;3.60;;
63874;SDS011;51595;24.180;-110.296;2022-10-31T06:17:16;26.25;;;5.53;;
63874;SDS011;51595;24.180;-110.296;2022-10-31T06:19:42;18.42;;;4.43;;
63874;SDS011;51595;24.180;-110.296;2022-10-31T06:22:09;24.05;;;4.25;;
63874;SDS011;51595;24.180;-110.296;2022-10-31T06:24:37;20.70;;;3.65;;
63874;SDS011;51595;24.180;-110.296;2022-10-31T06:27:03;21.67;;;3.97;;
63874;SDS011;51595;24.180;-110.296;2022-10-31T06:29:30;24.33;;;3.95;;
63874;SDS011;51595;24.180;-110.296;2022-10-31T06:31:57;32.85;;;4.30;;
63874;SDS011;51595;24.180;-110.296;2022-10-31T06:34:24;24.45;;;4.47;;
63874;SDS011;51595;24.180;-110.296;2022-10-31T06:36:51;21.33;;;3.75;;
63874;SDS011;51595;24.180;-110.296;2022-10-31T06:39:17;27.60;;;5.53;;
63874;SDS011;51595;24.180;-110.296;2022-10-31T06:41:43;30.13;;;4.80;;
63874;SDS011;51595;24.180;-110.296;2022-10-31T06:44:12;22.67;;;4.45;;
63874;SDS011;51595;24.180;-110.296;2022-10-31T06:46:39;32.20;;;4.32;;
63874;SDS011;51595;24.180;-110.296;2022-10-31T06:49:05;24.05;;;4.60;;
63874;SDS011;51595;24.180;-110.296;2022-10-31T06:51:31;22.63;;;4.20;;
63874;SDS011;51595;24.180;-110.296;2022-10-31T06:53:58;22.38;;;3.78;;
63874;SDS011;51595;24.180;-110.296;2022-10-31T06:56:24;29.25;;;3.88;;
63874;SDS011;51595;24.180;-110.296;2022-10-31T06:58:51;18.90;;;4.30;;
63874;SDS011;51595;24.180;-110.296;2022-10-31T07:01:17;21.77;;;4.22;;
63874;SDS011;51595;24.180;-110.296;2022-10-31T07:03:43;23.50;;;4.40;;
63874;SDS011;51595;24.180;-110.296;2022-10-31T07:06:10;17.55;;;4.57;;
63874;SDS011;51595;24.180;-110.296;2022-10-31T07:08:36;23.45;;;4.32;;
63874;SDS011;51595;24.180;-110.296;2022-10-31T07:11:03;22.25;;;4.22;;
63874;SDS011;51595;24.180;-110.296;2022-10-31T07:13:29;21.38;;;5.32;;
63874;SDS011;51595;24.180;-110.296;2022-10-31T07:15:59;19.75;;;4.03;;
63874;SDS011;51595;24.180;-110.296;2022-10-31T07:18:27;26.52;;;3.90;;
63874;SDS011;51595;24.180;-110.296;2022-10-31T07:20:53;21.92;;;4.25;;
63874;SDS011;51595;24.180;-110.296;2022-10-31T07:23:21;21.92;;;3.70;;
63874;SDS011;51595;24.180;-110.296;2022-10-31T07:25:47;23.27;;;4.10;;
63874;SDS011;51595;24.180;-110.296;2022-10-31T07:28:14;33.20;;;4.63;;
63874;SDS011;51595;24.180;-110.296;2022-10-31T07:30:40;21.48;;;4.10;;
63874;SDS011;51595;24.180;-110.296;2022-10-31T07:33:08;20.17;;;3.75;;
63874;SDS011;51595;24.180;-110.296;2022-10-31T07:35:34;27.08;;;5.28;;
63874;SDS011;51595;24.180;-110.296;2022-10-31T07:38:08;24.90;;;4.40;;
63874;SDS011;51595;24.180;-110.296;2022-10-31T07:40:35;26.65;;;3.92;;
63874;SDS011;51595;24.180;-110.296;2022-10-31T07:43:02;20.15;;;3.92;;
63874;SDS011;51595;24.180;-110.296;2022-10-31T07:45:28;18.55;;;4.13;;
63874;SDS011;51595;24.180;-110.296;2022-10-31T07:47:55;20.00;;;4.00;;
63874;SDS011;51595;24.180;-110.296;2022-10-31T07:50:23;22.42;;;4.20;;
63874;SDS011;51595;24.180;-110.296;2022-10-31T07:52:58;21.10;;;3.75;;
63874;SDS011;51595;24.180;-110.296;2022-10-31T07:55:30;25.35;;;4.80;;
63874;SDS011;51595;24.180;-110.296;2022-10-31T07:58:01;23.92;;;4.85;;
63874;SDS011;51595;24.180;-110.296;2022-10-31T08:00:32;23.87;;;4.30;;
63874;SDS011;51595;24.180;-110.296;2022-10-31T08:03:01;26.05;;;4.90;;
63874;SDS011;51595;24.180;-110.296;2022-10-31T08:05:29;25.30;;;4.72;;
63874;SDS011;51595;24.180;-110.296;2022-10-31T08:07:56;23.00;;;4.07;;
63874;SDS011;51595;24.180;-110.296;2022-10-31T08:10:23;26.30;;;3.88;;
63874;SDS011;51595;24.180;-110.296;2022-10-31T08:13:00;22.02;;;3.95;;
63874;SDS011;51595;24.180;-110.296;2022-10-31T08:15:28;23.30;;;4.50;;
63874;SDS011;51595;24.180;-110.296;2022-10-31T08:17:55;22.20;;;4.43;;
63874;SDS011;51595;24.180;-110.296;2022-10-31T08:20:21;23.70;;;4.53;;
63874;SDS011;51595;24.180;-110.296;2022-10-31T08:22:55;20.67;;;3.92;;
63874;SDS011;51595;24.180;-110.296;2022-10-31T08:25:22;28.70;;;5.13;;
63874;SDS011;51595;24.180;-110.296;2022-10-31T08:27:51;29.30;;;4.43;;
63874;SDS011;51595;24.180;-110.296;2022-10-31T08:30:22;23.73;;;4.30;;
63874;SDS011;51595;24.180;-110.296;2022-10-31T08:33:00;29.88;;;5.53;;
63874;SDS011;51595;24.180;-110.296;2022-10-31T08:35:32;26.02;;;3.97;;
63874;SDS011;51595;24.180;-110.296;2022-10-31T08:37:58;20.27;;;4.57;;
63874;SDS011;51595;24.180;-110.296;2022-10-31T08:40:26;27.33;;;4.40;;
63874;SDS011;51595;24.180;-110.296;2022-10-31T08:43:01;24.48;;;4.35;;
63874;SDS011;51595;24.180;-110.296;2022-10-31T08:45:32;29.60;;;4.88;;
63874;SDS011;51595;24.180;-110.296;2022-10-31T08:48:00;25.25;;;4.30;;
63874;SDS011;51595;24.180;-110.296;2022-10-31T08:50:28;27.05;;;4.35;;
63874;SDS011;51595;24.180;-110.296;2022-10-31T08:53:00;29.77;;;4.32;;
63874;SDS011;51595;24.180;-110.296;2022-10-31T08:55:32;28.75;;;4.25;;
63874;SDS011;51595;24.180;-110.296;2022-10-31T08:58:02;30.30;;;5.20;;
63874;SDS011;51595;24.180;-110.296;2022-10-31T09:00:31;23.13;;;5.80;;
63874;SDS011;51595;24.180;-110.296;2022-10-31T09:02:58;22.85;;;4.00;;
63874;SDS011;51595;24.180;-110.296;2022-10-31T09:05:26;20.15;;;4.03;;
63874;SDS011;51595;24.180;-110.296;2022-10-31T09:07:57;23.20;;;3.92;;
63874;SDS011;51595;24.180;-110.296;2022-10-31T09:10:25;23.30;;;4.43;;
63874;SDS011;51595;24.180;-110.296;2022-10-31T09:12:56;25.05;;;4.82;;
63874;SDS011;51595;24.180;-110.296;2022-10-31T09:15:23;24.70;;;4.20;;
63874;SDS011;51595;24.180;-110.296;2022-10-31T09:17:50;19.83;;;4.63;;
63874;SDS011;51595;24.180;-110.296;2022-10-31T09:20:17;24.73;;;4.53;;
63874;SDS011;51595;24.180;-110.296;2022-10-31T09:22:44;30.33;;;4.65;;
63874;SDS011;51595;24.180;-110.296;2022-10-31T09:25:10;31.52;;;5.10;;
63874;SDS011;51595;24.180;-110.296;2022-10-31T09:27:37;33.65;;;4.45;;
63874;SDS011;51595;24.180;-110.296;2022-10-31T09:30:04;19.67;;;4.28;;
63874;SDS011;51595;24.180;-110.296;2022-10-31T09:32:30;23.55;;;4.57;;
63874;SDS011;51595;24.180;-110.296;2022-10-31T09:34:57;22.55;;;4.55;;
63874;SDS011;51595;24.180;-110.296;2022-10-31T09:37:23;23.73;;;4.70;;
63874;SDS011;51595;24.180;-110.296;2022-10-31T09:39:50;24.20;;;4.10;;
63874;SDS011;51595;24.180;-110.296;2022-10-31T09:45:11;33.83;;;5.15;;
63874;SDS011;51595;24.180;-110.296;2022-10-31T09:50:49;23.00;;;4.47;;
63874;SDS011;51595;24.180;-110.296;2022-10-31T09:53:24;21.75;;;4.43;;
63874;SDS011;51595;24.180;-110.296;2022-10-31T09:56:04;21.27;;;4.55;;
63874;SDS011;51595;24.180;-110.296;2022-10-31T09:58:35;25.30;;;5.10;;
63874;SDS011;51595;24.180;-110.296;2022-10-31T10:01:20;24.42;;;4.95;;
63874;SDS011;51595;24.180;-110.296;2022-10-31T10:03:49;29.48;;;5.35;;
63874;SDS011;51595;24.180;-110.296;2022-10-31T10:06:23;26.38;;;4.78;;
63874;SDS011;51595;24.180;-110.296;2022-10-31T10:08:53;27.20;;;5.25;;
63874;SDS011;51595;24.180;-110.296;2022-10-31T10:22:38;26.80;;;5.57;;
63874;SDS011;51595;24.180;-110.296;2022-10-31T10:30:49;27.13;;;5.03;;
63874;SDS011;51595;24.180;-110.296;2022-10-31T10:33:48;23.00;;;4.63;;
63874;SDS011;51595;24.180;-110.296;2022-10-31T10:39:03;24.85;;;4.93;;
63874;SDS011;51595;24.180;-110.296;2022-10-31T10:41:34;27.23;;;4.80;;
63874;SDS011;51595;24.180;-110.296;2022-10-31T10:44:02;25.75;;;4.93;;
63874;SDS011;51595;24.180;-110.296;2022-10-31T10:55:16;31.45;;;5.50;;
63874;SDS011;51595;24.180;-110.296;2022-10-31T10:58:03;26.25;;;4.75;;
63874;SDS011;51595;24.180;-110.296;2022-10-31T11:00:43;25.98;;;4.60;;
63874;SDS011;51595;24.180;-110.296;2022-10-31T11:03:11;23.38;;;4.45;;
63874;SDS011;51595;24.180;-110.296;2022-10-31T11:08:38;24.75;;;4.18;;
63874;SDS011;51595;24.180;-110.296;2022-10-31T11:11:14;22.52;;;3.65;;
63874;SDS011;51595;24.180;-110.296;2022-10-31T11:19:47;17.73;;;4.10;;
63874;SDS011;51595;24.180;-110.296;2022-10-31T11:22:24;21.08;;;4.80;;
63874;SDS011;51595;24.180;-110.296;2022-10-31T11:24:51;23.63;;;4.63;;
63874;SDS011;51595;24.180;-110.296;2022-10-31T11:27:22;19.13;;;3.85;;
63874;SDS011;51595;24.180;-110.296;2022-10-31T11:29:50;17.60;;;4.55;;
63874;SDS011;51595;24.180;-110.296;2022-10-31T11:32:19;25.98;;;4.20;;
63874;SDS011;51595;24.180;-110.296;2022-10-31T11:34:49;23.17;;;4.20;;
63874;SDS011;51595;24.180;-110.296;2022-10-31T11:37:29;24.38;;;4.47;;
63874;SDS011;51595;24.180;-110.296;2022-10-31T11:40:01;22.63;;;4.72;;
63874;SDS011;51595;24.180;-110.296;2022-10-31T11:42:40;29.08;;;4.38;;
63874;SDS011;51595;24.180;-110.296;2022-10-31T11:45:17;17.98;;;4.22;;
63874;SDS011;51595;24.180;-110.296;2022-10-31T11:47:46;19.58;;;3.78;;
63874;SDS011;51595;24.180;-110.296;2022-10-31T11:50:22;14.20;;;3.67;;
63874;SDS011;51595;24.180;-110.296;2022-10-31T11:53:11;22.75;;;4.18;;
63874;SDS011;51595;24.180;-110.296;2022-10-31T11:55:43;19.80;;;4.00;;
63874;SDS011;51595;24.180;-110.296;2022-10-31T11:58:22;20.48;;;5.13;;
63874;SDS011;51595;24.180;-110.296;2022-10-31T12:00:52;14.45;;;3.38;;
63874;SDS011;51595;24.180;-110.296;2022-10-31T12:08:31;19.35;;;3.25;;
63874;SDS011;51595;24.180;-110.296;2022-10-31T12:11:18;14.98;;;3.60;;
63874;SDS011;51595;24.180;-110.296;2022-10-31T12:16:51;18.98;;;4.07;;
63874;SDS011;51595;24.180;-110.296;2022-10-31T12:22:52;26.33;;;3.83;;
63874;SDS011;51595;24.180;-110.296;2022-10-31T12:30:29;20.40;;;3.80;;
63874;SDS011;51595;24.180;-110.296;2022-10-31T12:33:17;24.08;;;4.40;;
63874;SDS011;51595;24.180;-110.296;2022-10-31T12:52:09;25.42;;;4.70;;
63874;SDS011;51595;24.180;-110.296;2022-10-31T12:57:52;21.20;;;4.00;;
63874;SDS011;51595;24.180;-110.296;2022-10-31T13:00:24;18.27;;;4.05;;
63874;SDS011;51595;24.180;-110.296;2022-10-31T13:03:02;17.08;;;3.65;;
63874;SDS011;51595;24.180;-110.296;2022-10-31T13:05:46;24.08;;;4.22;;
63874;SDS011;51595;24.180;-110.296;2022-10-31T13:08:50;15.07;;;3.67;;
63874;SDS011;51595;24.180;-110.296;2022-10-31T13:11:22;20.48;;;4.40;;
63874;SDS011;51595;24.180;-110.296;2022-10-31T13:16:51;14.35;;;3.33;;
63874;SDS011;51595;24.180;-110.296;2022-10-31T13:19:23;17.70;;;3.40;;
63874;SDS011;51595;24.180;-110.296;2022-10-31T13:25:02;13.15;;;3.03;;
63874;SDS011;51595;24.180;-110.296;2022-10-31T13:27:30;17.98;;;3.13;;
63874;SDS011;51595;24.180;-110.296;2022-10-31T13:30:12;15.57;;;3.38;;
63874;SDS011;51595;24.180;-110.296;2022-10-31T13:46:39;18.08;;;3.15;;
63874;SDS011;51595;24.180;-110.296;2022-10-31T13:51:52;20.33;;;3.15;;
63874;SDS011;51595;24.180;-110.296;2022-10-31T13:54:31;20.35;;;3.78;;
63874;SDS011;51595;24.180;-110.296;2022-10-31T13:56:59;14.77;;;3.00;;
63874;SDS011;51595;24.180;-110.296;2022-10-31T13:59:26;14.35;;;3.17;;
63874;SDS011;51595;24.180;-110.296;2022-10-31T14:02:12;13.15;;;3.33;;
63874;SDS011;51595;24.180;-110.296;2022-10-31T14:04:46;21.60;;;3.97;;
63874;SDS011;51595;24.180;-110.296;2022-10-31T14:07:18;21.05;;;3.58;;
63874;SDS011;51595;24.180;-110.296;2022-10-31T14:15:22;17.17;;;4.00;;
63874;SDS011;51595;24.180;-110.296;2022-10-31T14:20:23;16.40;;;3.55;;
63874;SDS011;51595;24.180;-110.296;2022-10-31T14:23:10;18.60;;;3.95;;
63874;SDS011;51595;24.180;-110.296;2022-10-31T14:28:47;13.18;;;4.28;;
63874;SDS011;51595;24.180;-110.296;2022-10-31T14:34:21;16.50;;;3.97;;
63874;SDS011;51595;24.180;-110.296;2022-10-31T14:53:20;15.93;;;2.95;;
63874;SDS011;51595;24.180;-110.296;2022-10-31T14:55:53;18.33;;;3.63;;
63874;SDS011;51595;24.180;-110.296;2022-10-31T14:58:22;15.38;;;3.38;;
63874;SDS011;51595;24.180;-110.296;2022-10-31T15:01:02;19.48;;;3.47;;
63874;SDS011;51595;24.180;-110.296;2022-10-31T15:03:34;19.38;;;3.58;;
63874;SDS011;51595;24.180;-110.296;2022-10-31T15:06:09;15.88;;;3.88;;
63874;SDS011;51595;24.180;-110.296;2022-10-31T15:08:44;13.50;;;3.80;;
63874;SDS011;51595;24.180;-110.296;2022-10-31T15:11:16;21.67;;;4.68;;
63874;SDS011;51595;24.180;-110.296;2022-10-31T15:13:48;27.73;;;3.60;;
63874;SDS011;51595;24.180;-110.296;2022-10-31T15:16:20;13.85;;;3.42;;
63874;SDS011;51595;24.180;-110.296;2022-10-31T15:19:04;15.27;;;3.50;;
63874;SDS011;51595;24.180;-110.296;2022-10-31T15:21:42;22.40;;;3.70;;
63874;SDS011;51595;24.180;-110.296;2022-10-31T15:24:12;25.42;;;5.13;;
63874;SDS011;51595;24.180;-110.296;2022-10-31T15:26:48;15.35;;;2.97;;
63874;SDS011;51595;24.180;-110.296;2022-10-31T15:29:24;16.42;;;3.60;;
63874;SDS011;51595;24.180;-110.296;2022-10-31T15:31:57;23.98;;;3.90;;
63874;SDS011;51595;24.180;-110.296;2022-10-31T15:34:42;18.75;;;3.20;;
63874;SDS011;51595;24.180;-110.296;2022-10-31T15:37:16;19.70;;;3.70;;
63874;SDS011;51595;24.180;-110.296;2022-10-31T15:45:27;20.25;;;4.03;;
63874;SDS011;51595;24.180;-110.296;2022-10-31T15:48:00;21.48;;;3.75;;
63874;SDS011;51595;24.180;-110.296;2022-10-31T15:52:57;24.83;;;3.70;;
63874;SDS011;51595;24.180;-110.296;2022-10-31T15:55:25;22.73;;;3.83;;
63874;SDS011;51595;24.180;-110.296;2022-10-31T15:57:55;20.08;;;4.35;;
63874;SDS011;51595;24.180;-110.296;2022-10-31T16:00:29;22.02;;;3.60;;
63874;SDS011;51595;24.180;-110.296;2022-10-31T16:03:05;30.33;;;3.72;;
63874;SDS011;51595;24.180;-110.296;2022-10-31T16:08:26;25.67;;;3.85;;
63874;SDS011;51595;24.180;-110.296;2022-10-31T16:13:26;21.15;;;3.42;;
63874;SDS011;51595;24.180;-110.296;2022-10-31T16:15:56;28.60;;;3.67;;
63874;SDS011;51595;24.180;-110.296;2022-10-31T16:18:28;22.90;;;3.70;;
63874;SDS011;51595;24.180;-110.296;2022-10-31T16:21:00;18.98;;;3.10;;
63874;SDS011;51595;24.180;-110.296;2022-10-31T16:23:27;18.42;;;3.50;;
63874;SDS011;51595;24.180;-110.296;2022-10-31T16:25:53;24.63;;;3.15;;
63874;SDS011;51595;24.180;-110.296;2022-10-31T16:28:21;18.02;;;3.10;;
63874;SDS011;51595;24.180;-110.296;2022-10-31T16:30:50;22.52;;;3.45;;
63874;SDS011;51595;24.180;-110.296;2022-10-31T16:39:05;22.27;;;3.03;;
63874;SDS011;51595;24.180;-110.296;2022-10-31T16:41:37;19.35;;;2.90;;
63874;SDS011;51595;24.180;-110.296;2022-10-31T16:44:16;22.00;;;3.47;;
63874;SDS011;51595;24.180;-110.296;2022-10-31T16:46:46;19.33;;;3.35;;
63874;SDS011;51595;24.180;-110.296;2022-10-31T16:49:13;24.25;;;3.28;;
63874;SDS011;51595;24.180;-110.296;2022-10-31T16:51:41;17.90;;;3.08;;
63874;SDS011;51595;24.180;-110.296;2022-10-31T16:54:11;23.30;;;3.60;;
63874;SDS011;51595;24.180;-110.296;2022-10-31T16:56:38;22.88;;;3.10;;
63874;SDS011;51595;24.180;-110.296;2022-10-31T16:59:05;16.52;;;2.85;;
63874;SDS011;51595;24.180;-110.296;2022-10-31T17:01:37;15.00;;;2.55;;
63874;SDS011;51595;24.180;-110.296;2022-10-31T17:04:05;9.32;;;2.72;;
63874;SDS011;51595;24.180;-110.296;2022-10-31T17:06:33;16.27;;;2.28;;
63874;SDS011;51595;24.180;-110.296;2022-10-31T17:09:01;15.10;;;2.80;;
63874;SDS011;51595;24.180;-110.296;2022-10-31T17:11:27;19.35;;;3.28;;
63874;SDS011;51595;24.180;-110.296;2022-10-31T17:13:54;10.68;;;2.55;;
63874;SDS011;51595;24.180;-110.296;2022-10-31T17:16:21;23.15;;;3.13;;
63874;SDS011;51595;24.180;-110.296;2022-10-31T17:18:48;19.00;;;2.80;;
63874;SDS011;51595;24.180;-110.296;2022-10-31T17:21:16;15.52;;;2.42;;